Terminal Aerodrome Forecast
Issued by NWS Dallas/Fort Worth, TX

Home | Current Version | Previous Version | Text Only | Print | Product List | Glossary On
Versions: 1 2 3 4 5 6 7 8 9 10 11 12 13 14 15 16 17 18 19 20 21 22 23 24 25 26
208
FTUS44 KFWD 252327
TAFDFW
TAF
KDFW 252327Z 2600/2706 11006KT P6SM FEW060 BKN120 BKN250
      TEMPO 2600/2601 6SM -SHRA
     FM261000 11006KT P6SM FEW040
     FM262000 09006KT P6SM VCSH SCT060
     FM270000 06006KT P6SM FEW070 BKN300=

USA.gov is the U.S. government's official web portal to all federal, state and local government web resources and services.